createdAt,value
2022-09-21T00:02:47.810Z,15
2022-09-21T00:04:47.825Z,15
2022-09-21T00:06:47.837Z,14
2022-09-21T00:09:47.859Z,14
2022-09-21T00:12:47.851Z,15
2022-09-21T00:14:47.838Z,14
2022-09-21T00:16:47.923Z,13
2022-09-21T00:19:47.830Z,13
2022-09-21T00:21:47.834Z,15
2022-09-21T00:24:47.896Z,12
2022-09-21T00:27:47.840Z,15
2022-09-21T00:30:47.854Z,13
2022-09-21T00:32:47.865Z,11
2022-09-21T00:35:47.875Z,14
2022-09-21T00:38:47.890Z,15
2022-09-21T00:40:48.462Z,13
2022-09-21T00:43:47.888Z,14
2022-09-21T00:46:47.856Z,13
2022-09-21T00:49:47.836Z,15
2022-09-21T00:52:47.858Z,14
2022-09-21T00:54:47.870Z,15
2022-09-21T00:56:47.935Z,15
2022-09-21T00:59:47.826Z,13
2022-09-21T01:01:47.849Z,15
2022-09-21T01:03:47.944Z,15
2022-09-21T01:06:47.971Z,14
2022-09-21T01:09:47.845Z,15
2022-09-21T01:11:47.863Z,14
2022-09-21T01:14:47.874Z,13
2022-09-21T01:16:47.860Z,13
2022-09-21T01:19:47.836Z,14
2022-09-21T01:21:47.847Z,15
2022-09-21T01:24:47.862Z,12
2022-09-21T01:26:49.401Z,12
2022-09-21T01:29:47.845Z,13
2022-09-21T01:32:47.865Z,16
2022-09-21T01:34:47.853Z,14
2022-09-21T01:37:47.867Z,13
2022-09-21T01:40:47.927Z,15
2022-09-21T01:43:47.835Z,17
2022-09-21T01:46:47.887Z,13
2022-09-21T01:49:47.863Z,18
2022-09-21T01:52:47.906Z,14
2022-09-21T01:55:47.845Z,12
2022-09-21T01:57:47.846Z,14
2022-09-21T02:00:47.910Z,13
2022-09-21T02:02:47.903Z,15
2022-09-21T02:04:47.939Z,14
2022-09-21T02:07:47.826Z,15
2022-09-21T02:09:47.846Z,14
2022-09-21T02:12:47.903Z,14
2022-09-21T02:15:47.872Z,12
2022-09-21T02:17:47.855Z,14
2022-09-21T02:20:47.873Z,14
2022-09-21T02:22:47.906Z,15
2022-09-21T02:25:47.826Z,15
2022-09-21T02:27:47.832Z,12
2022-09-21T02:29:47.872Z,13
2022-09-21T02:32:47.897Z,16
2022-09-21T02:34:47.855Z,13
2022-09-21T02:36:47.878Z,14
2022-09-21T02:38:47.898Z,13
2022-09-21T02:40:47.974Z,13
2022-09-21T02:43:47.858Z,13
2022-09-21T02:46:47.888Z,13
2022-09-21T02:49:47.852Z,13
2022-09-21T02:51:47.858Z,16
2022-09-21T02:54:47.835Z,17
2022-09-21T02:56:47.912Z,16
2022-09-21T02:59:47.844Z,14
2022-09-21T03:01:47.858Z,12
2022-09-21T03:03:47.847Z,13
2022-09-21T03:05:47.832Z,13
2022-09-21T03:08:47.873Z,12
2022-09-21T03:11:47.823Z,13
2022-09-21T03:13:48.831Z,15
2022-09-21T03:16:47.917Z,12
2022-09-21T03:19:47.849Z,12
2022-09-21T03:21:47.841Z,11
2022-09-21T03:24:47.844Z,13
2022-09-21T03:26:47.867Z,14
2022-09-21T03:28:47.887Z,12
2022-09-21T03:31:47.863Z,14
2022-09-21T03:33:48.192Z,13
2022-09-21T03:36:47.888Z,14
2022-09-21T03:39:47.847Z,11
2022-09-21T03:42:47.873Z,13
2022-09-21T03:45:47.865Z,15
2022-09-21T03:47:47.910Z,12
2022-09-21T03:50:48.409Z,11
2022-09-21T03:53:47.858Z,14
2022-09-21T03:55:47.853Z,14
2022-09-21T03:57:47.875Z,13
2022-09-21T04:00:47.883Z,12
2022-09-21T04:02:47.927Z,12
2022-09-21T04:05:47.874Z,14
2022-09-21T04:08:47.871Z,13
2022-09-21T04:11:47.827Z,13
2022-09-21T04:13:47.851Z,11
2022-09-21T04:16:47.838Z,13
2022-09-21T04:18:47.869Z,14
2022-09-21T04:21:47.854Z,14
2022-09-21T04:24:47.870Z,14
2022-09-21T04:27:47.848Z,16
2022-09-21T04:29:47.834Z,16
2022-09-21T04:32:47.842Z,17
2022-09-21T04:34:47.865Z,14
2022-09-21T04:37:47.842Z,12
2022-09-21T04:40:47.847Z,15
2022-09-21T04:42:47.855Z,13
2022-09-21T04:45:47.837Z,12
2022-09-21T04:48:47.861Z,13
2022-09-21T04:50:47.897Z,20
2022-09-21T04:53:47.874Z,11
2022-09-21T04:56:47.861Z,12
2022-09-21T04:59:47.840Z,13
2022-09-21T05:01:47.890Z,14
2022-09-21T05:04:50.912Z,25
2022-09-21T05:06:47.906Z,11
2022-09-21T05:09:47.847Z,13
2022-09-21T05:11:47.859Z,12
2022-09-21T05:13:47.893Z,13
2022-09-21T05:16:47.869Z,12
2022-09-21T05:19:47.851Z,13
2022-09-21T05:21:47.862Z,13
2022-09-21T05:24:47.849Z,12
2022-09-21T05:27:47.817Z,12
2022-09-21T05:29:47.860Z,13
2022-09-21T05:32:47.878Z,14
2022-09-21T05:35:47.864Z,12
2022-09-21T05:37:47.861Z,12
2022-09-21T05:40:47.870Z,13
2022-09-21T05:43:47.895Z,11
2022-09-21T05:46:47.854Z,13
2022-09-21T05:48:47.864Z,14
2022-09-21T05:50:47.862Z,17
2022-09-21T05:52:47.879Z,13
2022-09-21T05:55:47.841Z,13
2022-09-21T05:57:47.862Z,15
2022-09-21T05:59:47.893Z,14
2022-09-21T06:02:47.870Z,15
2022-09-21T06:04:47.902Z,15
2022-09-21T06:07:47.890Z,12
2022-09-21T06:10:47.867Z,12
2022-09-21T06:12:47.889Z,14
2022-09-21T06:15:47.871Z,13
2022-09-21T06:18:47.876Z,14
2022-09-21T06:21:47.894Z,14
2022-09-21T06:23:47.914Z,13
2022-09-21T06:26:47.947Z,13
2022-09-21T06:29:47.858Z,14
2022-09-21T06:31:48.533Z,12
2022-09-21T06:34:47.898Z,13
2022-09-21T06:37:47.892Z,13
2022-09-21T06:40:47.870Z,12
2022-09-21T06:42:47.876Z,14
2022-09-21T06:45:47.921Z,13
2022-09-21T06:47:47.919Z,13
2022-09-21T06:50:47.947Z,13
2022-09-21T06:53:47.895Z,14
2022-09-21T06:55:47.902Z,15
2022-09-21T06:57:47.905Z,14
2022-09-21T07:00:47.992Z,14
2022-09-21T07:03:47.880Z,13
2022-09-21T07:05:47.903Z,12
2022-09-21T07:10:06.863Z,14
2022-09-21T07:12:47.879Z,13
2022-09-21T07:15:51.408Z,12
2022-09-21T07:17:50.265Z,13
2022-09-21T07:20:47.871Z,12
2022-09-21T07:22:47.855Z,12
2022-09-21T07:24:47.909Z,11
2022-09-21T07:27:47.867Z,13
2022-09-21T07:30:47.903Z,16
2022-09-21T07:33:47.880Z,16
2022-09-21T07:35:47.862Z,15
2022-09-21T07:38:47.888Z,16
2022-09-21T07:40:47.917Z,16
2022-09-21T07:43:47.901Z,14
2022-09-21T07:45:48.238Z,15
2022-09-21T07:48:47.869Z,17
2022-09-21T07:50:47.856Z,14
2022-09-21T07:53:47.862Z,19
2022-09-21T07:56:47.852Z,17
2022-09-21T07:59:47.876Z,15
2022-09-21T08:01:47.921Z,14
2022-09-21T08:03:47.910Z,17
2022-09-21T08:06:47.871Z,16
2022-09-21T08:09:47.918Z,19
2022-09-21T08:11:47.944Z,19
2022-09-21T08:14:47.879Z,24
2022-09-21T08:16:47.892Z,28
2022-09-21T08:19:47.876Z,28
2022-09-21T08:22:47.860Z,26
2022-09-21T08:25:47.878Z,23
2022-09-21T08:27:47.855Z,33
2022-09-21T08:29:47.924Z,20
2022-09-21T08:32:51.240Z,25
2022-09-21T08:35:47.870Z,28
2022-09-21T08:37:47.887Z,20
2022-09-21T08:40:47.954Z,35
2022-09-21T08:43:47.877Z,25
2022-09-21T08:46:47.922Z,25
2022-09-21T08:48:47.915Z,24
2022-09-21T08:51:48.914Z,34
2022-09-21T08:54:47.877Z,33
2022-09-21T08:57:04.293Z,14
2022-09-21T08:59:47.892Z,33
2022-09-21T09:01:47.935Z,12
2022-09-21T09:04:47.923Z,30
2022-09-21T09:07:47.925Z,34
2022-09-21T09:09:47.893Z,32
2022-09-21T09:12:47.915Z,13
2022-09-21T09:15:47.907Z,24
2022-09-21T09:17:47.890Z,26
2022-09-21T09:20:47.912Z,27
2022-09-21T09:23:47.901Z,24
2022-09-21T09:26:47.899Z,32
2022-09-21T09:28:51.396Z,25
2022-09-21T09:31:48.020Z,19
2022-09-21T09:34:47.953Z,15
2022-09-21T09:36:58.163Z,22
2022-09-21T09:39:47.907Z,16
2022-09-21T09:42:47.906Z,22
2022-09-21T09:44:47.934Z,23
2022-09-21T09:47:47.921Z,24
2022-09-21T09:50:47.918Z,26
2022-09-21T09:52:47.951Z,13
2022-09-21T09:55:47.940Z,22
2022-09-21T09:57:47.936Z,23
2022-09-21T10:00:47.940Z,25
2022-09-21T10:03:47.903Z,20
2022-09-21T10:05:47.893Z,20
2022-09-21T10:08:48.021Z,27
2022-09-21T10:11:47.891Z,19
2022-09-21T10:14:47.912Z,13
2022-09-21T10:16:47.922Z,19
2022-09-21T10:19:47.918Z,14
2022-09-21T10:22:47.888Z,15
2022-09-21T10:24:47.890Z,14
2022-09-21T10:26:47.905Z,17
2022-09-21T10:28:47.979Z,15
2022-09-21T10:31:47.891Z,15
2022-09-21T10:33:47.908Z,20
2022-09-21T10:35:47.928Z,8
2022-09-21T10:38:47.906Z,18
2022-09-21T10:40:47.958Z,20
2022-09-21T10:43:47.932Z,18
2022-09-21T10:46:47.978Z,14
2022-09-21T10:48:47.896Z,14
2022-09-21T10:51:47.899Z,12
2022-09-21T10:53:49.944Z,14
2022-09-21T10:55:58.338Z,14
2022-09-21T10:57:47.907Z,17
2022-09-21T11:00:47.942Z,14
2022-09-21T11:03:47.899Z,13
2022-09-21T11:05:47.916Z,11
2022-09-21T11:08:47.993Z,10
2022-09-21T11:11:47.929Z,17
2022-09-21T11:13:47.968Z,17
2022-09-21T11:16:47.932Z,16
2022-09-21T11:19:47.919Z,12
2022-09-21T11:22:47.897Z,15
2022-09-21T11:24:47.925Z,13
2022-09-21T11:27:47.934Z,12
2022-09-21T11:30:48.729Z,10
2022-09-21T11:33:47.899Z,15
2022-09-21T11:35:47.942Z,16
2022-09-21T11:38:47.977Z,19
2022-09-21T11:41:47.946Z,16
2022-09-21T11:43:47.936Z,18
2022-09-21T11:46:47.911Z,14
2022-09-21T11:48:47.911Z,22
2022-09-21T11:51:47.919Z,14
2022-09-21T11:53:47.908Z,19
2022-09-21T11:56:03.404Z,20
2022-09-21T11:57:50.477Z,20
2022-09-21T11:59:47.987Z,15
2022-09-21T12:02:48.061Z,15
2022-09-21T12:05:47.960Z,11
2022-09-21T12:08:47.906Z,16
2022-09-21T12:10:47.955Z,16
2022-09-21T12:13:47.943Z,18
2022-09-21T12:15:47.948Z,10
2022-09-21T12:18:47.919Z,17
2022-09-21T12:20:47.928Z,20
2022-09-21T12:22:47.907Z,22
2022-09-21T12:25:47.951Z,21
2022-09-21T12:27:47.947Z,14
2022-09-21T12:29:47.967Z,15
2022-09-21T12:32:47.917Z,14
2022-09-21T12:34:47.924Z,13
2022-09-21T12:37:47.913Z,14
2022-09-21T12:39:47.924Z,13
2022-09-21T12:42:47.899Z,16
2022-09-21T12:44:47.935Z,10
2022-09-21T12:47:47.942Z,12
2022-09-21T12:50:47.965Z,16
2022-09-21T12:53:50.755Z,16
2022-09-21T12:55:47.939Z,14
2022-09-21T12:58:47.934Z,12
2022-09-21T13:01:48.078Z,13
2022-09-21T13:03:47.946Z,12
2022-09-21T13:06:47.924Z,11
2022-09-21T13:10:49.260Z,17
2022-09-21T13:12:47.932Z,13
2022-09-21T13:15:47.934Z,12
2022-09-21T13:17:47.968Z,13
2022-09-21T13:20:47.929Z,11
2022-09-21T13:23:47.969Z,11
2022-09-21T13:26:47.917Z,11
2022-09-21T13:28:51.075Z,9
2022-09-21T13:30:47.984Z,9
2022-09-21T13:33:47.946Z,9
2022-09-21T13:35:47.969Z,10
2022-09-21T13:38:47.980Z,6
2022-09-21T13:42:02.665Z,8
2022-09-21T13:43:47.947Z,9
2022-09-21T13:46:47.937Z,8
2022-09-21T13:48:47.968Z,8
2022-09-21T13:51:47.925Z,10
2022-09-21T13:53:47.956Z,9
2022-09-21T13:56:47.941Z,6
2022-09-21T13:58:47.959Z,10
2022-09-21T14:00:48.027Z,8
2022-09-21T14:02:48.750Z,10
2022-09-21T14:05:47.959Z,7
2022-09-21T14:08:49.388Z,10
2022-09-21T14:11:47.953Z,8
2022-09-21T14:14:47.967Z,9
2022-09-21T14:16:48.012Z,6
2022-09-21T14:19:47.966Z,8
2022-09-21T14:22:47.921Z,6
2022-09-21T14:24:48.016Z,6
2022-09-21T14:27:50.806Z,8
2022-09-21T14:30:47.974Z,8
2022-09-21T14:33:47.953Z,6
2022-09-21T14:36:47.987Z,7
2022-09-21T14:38:48.195Z,4
2022-09-21T14:41:47.977Z,6
2022-09-21T14:43:47.989Z,5
2022-09-21T14:46:47.985Z,9
2022-09-21T14:49:47.983Z,4
2022-09-21T14:51:55.598Z,7
2022-09-21T14:53:48.050Z,6
2022-09-21T14:56:47.970Z,10
2022-09-21T14:59:47.977Z,6
2022-09-21T15:02:47.995Z,6
2022-09-21T15:05:48.046Z,7
2022-09-21T15:08:47.977Z,5
2022-09-21T15:11:47.996Z,7
2022-09-21T15:13:48.084Z,4
2022-09-21T15:16:47.951Z,5
2022-09-21T15:18:48.011Z,4
2022-09-21T15:21:47.959Z,8
2022-09-21T15:23:48.034Z,3
2022-09-21T15:26:48.007Z,4
2022-09-21T15:29:08.177Z,4
2022-09-21T15:31:48.087Z,5
2022-09-21T15:33:47.979Z,4
2022-09-21T15:36:48.999Z,5
2022-09-21T15:38:48.010Z,4
2022-09-21T15:41:47.991Z,4
2022-09-21T15:44:47.980Z,3
2022-09-21T15:46:48.046Z,6
2022-09-21T15:49:47.955Z,5
2022-09-21T15:52:47.974Z,5
2022-09-21T15:54:48.008Z,6
2022-09-21T15:57:47.961Z,5
2022-09-21T15:59:47.946Z,4
2022-09-21T16:01:48.010Z,4
2022-09-21T16:04:47.998Z,3
2022-09-21T16:06:48.008Z,3
2022-09-21T16:08:48.043Z,6
2022-09-21T16:10:48.060Z,4
2022-09-21T16:13:47.990Z,3
2022-09-21T16:16:47.978Z,5
2022-09-21T16:19:47.977Z,4
2022-09-21T16:22:48.012Z,5
2022-09-21T16:25:47.996Z,5
2022-09-21T16:28:48.006Z,3
2022-09-21T16:30:48.009Z,5
2022-09-21T16:33:47.979Z,4
2022-09-21T16:36:48.017Z,7
2022-09-21T16:39:47.974Z,7
2022-09-21T16:41:47.984Z,8
2022-09-21T16:43:48.049Z,7
2022-09-21T16:46:48.117Z,8
2022-09-21T16:49:48.027Z,8
2022-09-21T16:52:47.978Z,6
2022-09-21T16:54:48.038Z,5
2022-09-21T16:57:48.032Z,6
2022-09-21T17:00:48.096Z,7
2022-09-21T17:03:48.041Z,6
2022-09-21T17:06:48.065Z,7
2022-09-21T17:09:48.123Z,6
2022-09-21T17:12:49.069Z,10
2022-09-21T17:15:48.081Z,11
2022-09-21T17:17:48.011Z,11
2022-09-21T17:19:48.019Z,12
2022-09-21T17:22:48.007Z,11
2022-09-21T17:24:50.615Z,9
2022-09-21T17:27:48.057Z,14
2022-09-21T17:29:48.099Z,13
2022-09-21T17:32:48.011Z,17
2022-09-21T17:34:48.023Z,14
2022-09-21T17:37:47.997Z,15
2022-09-21T17:40:48.008Z,12
2022-09-21T17:43:48.007Z,14
2022-09-21T17:46:48.069Z,12
2022-09-21T17:49:48.037Z,13
2022-09-21T17:52:48.017Z,10
2022-09-21T17:54:48.116Z,12
2022-09-21T17:57:48.021Z,13
2022-09-21T17:59:48.079Z,11
2022-09-21T18:01:48.086Z,13
2022-09-21T18:03:48.068Z,12
2022-09-21T18:06:48.030Z,12
2022-09-21T18:09:48.038Z,15
2022-09-21T18:12:48.657Z,12
2022-09-21T18:14:48.007Z,13
2022-09-21T18:16:48.019Z,10
2022-09-21T18:18:48.023Z,11
2022-09-21T18:21:48.036Z,10
2022-09-21T18:23:48.069Z,11
2022-09-21T18:26:48.050Z,12
2022-09-21T18:28:48.173Z,12
2022-09-21T18:30:49.658Z,9
2022-09-21T18:33:48.063Z,14
2022-09-21T18:36:48.023Z,10
2022-09-21T18:38:48.088Z,15
2022-09-21T18:41:48.124Z,11
2022-09-21T18:43:48.193Z,12
2022-09-21T18:46:48.103Z,17
2022-09-21T18:48:50.929Z,18
2022-09-21T18:51:48.111Z,18
2022-09-21T18:54:48.067Z,16
2022-09-21T18:56:48.074Z,16
2022-09-21T18:58:48.178Z,16
2022-09-21T19:00:48.202Z,16
2022-09-21T19:03:48.138Z,15
2022-09-21T19:06:48.022Z,14
2022-09-21T19:08:48.038Z,12
2022-09-21T19:11:48.046Z,12
2022-09-21T19:13:48.025Z,12
2022-09-21T19:16:00.189Z,15
2022-09-21T19:18:48.010Z,13
2022-09-21T19:20:48.047Z,17
2022-09-21T19:22:48.136Z,15
2022-09-21T19:25:49.818Z,14
2022-09-21T19:27:48.147Z,17
2022-09-21T19:30:48.150Z,13
2022-09-21T19:33:50.245Z,16
2022-09-21T19:35:48.126Z,11
2022-09-21T19:38:48.048Z,15
2022-09-21T19:40:48.111Z,16
2022-09-21T19:43:48.080Z,16
2022-09-21T19:45:48.142Z,14
2022-09-21T19:48:48.033Z,19
2022-09-21T19:50:48.095Z,14
2022-09-21T19:53:48.063Z,17
2022-09-21T19:55:48.105Z,19
2022-09-21T19:57:48.130Z,17
2022-09-21T19:59:48.176Z,14
2022-09-21T20:02:48.144Z,14
2022-09-21T20:05:48.054Z,16
2022-09-21T20:08:48.011Z,15
2022-09-21T20:10:48.070Z,15
2022-09-21T20:13:48.044Z,15
2022-09-21T20:15:48.141Z,17
2022-09-21T20:18:48.023Z,14
2022-09-21T20:20:48.108Z,13
2022-09-21T20:22:48.078Z,12
2022-09-21T20:24:48.099Z,14
2022-09-21T20:27:48.116Z,16
2022-09-21T20:29:48.198Z,14
2022-09-21T20:31:48.177Z,14
2022-09-21T20:34:48.103Z,15
2022-09-21T20:37:48.031Z,14
2022-09-21T20:39:48.234Z,16
2022-09-21T20:42:48.041Z,15
2022-09-21T20:45:48.112Z,15
2022-09-21T20:47:48.096Z,21
2022-09-21T20:49:48.086Z,16
2022-09-21T20:51:48.109Z,13
2022-09-21T20:53:48.124Z,15
2022-09-21T20:56:48.120Z,14
2022-09-21T20:58:48.181Z,16
2022-09-21T21:01:48.245Z,14
2022-09-21T21:04:48.166Z,13
2022-09-21T21:07:48.085Z,14
2022-09-21T21:10:48.045Z,18
2022-09-21T21:13:48.236Z,12
2022-09-21T21:16:48.153Z,12
2022-09-21T21:19:48.123Z,13
2022-09-21T21:22:48.123Z,13
2022-09-21T21:25:48.103Z,16
2022-09-21T21:28:48.161Z,13
2022-09-21T21:30:48.330Z,12
2022-09-21T21:33:48.140Z,11
2022-09-21T21:36:48.137Z,14
2022-09-21T21:39:48.094Z,14
2022-09-21T21:42:48.078Z,11
2022-09-21T21:45:48.188Z,12
2022-09-21T21:48:48.058Z,13
2022-09-21T21:50:48.113Z,16
2022-09-21T21:53:48.087Z,16
2022-09-21T21:55:48.094Z,11
2022-09-21T21:57:48.171Z,13
2022-09-21T21:59:48.146Z,13
2022-09-21T22:02:48.095Z,10
2022-09-21T22:06:48.392Z,13
2022-09-21T22:09:48.083Z,13
2022-09-21T22:12:48.101Z,14
2022-09-21T22:15:48.069Z,15
2022-09-21T22:18:48.081Z,13
2022-09-21T22:21:51.796Z,17
2022-09-21T22:23:48.087Z,15
2022-09-21T22:26:48.109Z,15
2022-09-21T22:29:48.099Z,13
2022-09-21T22:32:48.097Z,13
2022-09-21T22:35:48.116Z,12
2022-09-21T22:38:48.080Z,14
2022-09-21T22:40:48.207Z,15
2022-09-21T22:43:48.078Z,15
2022-09-21T22:46:48.087Z,13
2022-09-21T22:49:48.079Z,10
2022-09-21T22:52:48.088Z,16
2022-09-21T22:55:48.080Z,14
2022-09-21T22:58:48.101Z,12
2022-09-21T23:01:48.072Z,8
2022-09-21T23:04:48.101Z,10
2022-09-21T23:06:48.092Z,14
2022-09-21T23:08:48.099Z,16
2022-09-21T23:10:48.169Z,14
2022-09-21T23:13:48.071Z,11
2022-09-21T23:15:48.076Z,13
2022-09-21T23:17:48.076Z,13
2022-09-21T23:19:48.078Z,12
2022-09-21T23:22:48.087Z,10
2022-09-21T23:25:48.049Z,11
2022-09-21T23:27:48.052Z,10
2022-09-21T23:29:48.061Z,12
2022-09-21T23:31:48.155Z,12
2022-09-21T23:34:48.077Z,11
2022-09-21T23:36:48.067Z,11
2022-09-21T23:38:48.097Z,9
2022-09-21T23:41:48.100Z,12
2022-09-21T23:44:48.075Z,13
2022-09-21T23:46:48.114Z,10
2022-09-21T23:48:48.070Z,13
2022-09-21T23:51:48.053Z,11
2022-09-21T23:54:48.104Z,14
2022-09-21T23:56:48.520Z,13
2022-09-21T23:59:48.065Z,12
